sensor_id;sensor_type;location;lat;lon;timestamp;temperature;humidity
4604;DHT22;2314;48.272;11.562;2023-07-31T20:19:39;17.90;99.90
4604;DHT22;2314;48.272;11.562;2023-07-31T20:22:06;17.80;99.90
4604;DHT22;2314;48.272;11.562;2023-07-31T20:24:33;17.80;99.90
4604;DHT22;2314;48.272;11.562;2023-07-31T20:27:00;17.90;99.90
4604;DHT22;2314;48.272;11.562;2023-07-31T20:29:27;17.90;99.90
4604;DHT22;2314;48.272;11.562;2023-07-31T20:31:54;17.90;99.90
4604;DHT22;2314;48.272;11.562;2023-07-31T20:34:21;17.90;99.90
4604;DHT22;2314;48.272;11.562;2023-07-31T20:36:49;17.90;99.90
4604;DHT22;2314;48.272;11.562;2023-07-31T20:39:16;17.80;99.90
4604;DHT22;2314;48.272;11.562;2023-07-31T20:41:43;17.80;99.90
4604;DHT22;2314;48.272;11.562;2023-07-31T20:44:10;17.90;99.90
4604;DHT22;2314;48.272;11.562;2023-07-31T20:46:37;17.90;99.90
4604;DHT22;2314;48.272;11.562;2023-07-31T20:49:05;17.90;99.90
4604;DHT22;2314;48.272;11.562;2023-07-31T20:51:32;17.90;99.90
4604;DHT22;2314;48.272;11.562;2023-07-31T20:54:02;17.90;99.90
4604;DHT22;2314;48.272;11.562;2023-07-31T20:56:29;17.90;99.90
4604;DHT22;2314;48.272;11.562;2023-07-31T20:58:56;17.90;99.90
4604;DHT22;2314;48.272;11.562;2023-07-31T21:01:23;17.90;99.90
4604;DHT22;2314;48.272;11.562;2023-07-31T21:03:51;18.00;99.90
4604;DHT22;2314;48.272;11.562;2023-07-31T21:06:19;18.00;99.90
4604;DHT22;2314;48.272;11.562;2023-07-31T21:08:46;18.00;99.90
4604;DHT22;2314;48.272;11.562;2023-07-31T21:11:15;18.00;99.90
4604;DHT22;2314;48.272;11.562;2023-07-31T21:13:42;18.10;99.90
4604;DHT22;2314;48.272;11.562;2023-07-31T21:16:12;18.10;99.90
4604;DHT22;2314;48.272;11.562;2023-07-31T21:18:39;18.20;99.90
4604;DHT22;2314;48.272;11.562;2023-07-31T21:21:06;18.20;99.90
4604;DHT22;2314;48.272;11.562;2023-07-31T21:23:34;18.20;99.90
4604;DHT22;2314;48.272;11.562;2023-07-31T21:26:01;18.30;99.90
4604;DHT22;2314;48.272;11.562;2023-07-31T21:28:30;18.30;99.90
4604;DHT22;2314;48.272;11.562;2023-07-31T21:30:57;18.40;99.90
4604;DHT22;2314;48.272;11.562;2023-07-31T21:33:25;18.40;99.90
4604;DHT22;2314;48.272;11.562;2023-07-31T21:35:52;18.40;99.90
4604;DHT22;2314;48.272;11.562;2023-07-31T21:38:19;18.40;99.90
4604;DHT22;2314;48.272;11.562;2023-07-31T21:40:46;18.30;99.90
4604;DHT22;2314;48.272;11.562;2023-07-31T21:43:13;18.20;99.90
4604;DHT22;2314;48.272;11.562;2023-07-31T21:45:42;18.00;99.90
4604;DHT22;2314;48.272;11.562;2023-07-31T21:48:09;17.70;99.90
4604;DHT22;2314;48.272;11.562;2023-07-31T21:50:36;17.50;99.90
4604;DHT22;2314;48.272;11.562;2023-07-31T21:53:03;17.30;99.90
4604;DHT22;2314;48.272;11.562;2023-07-31T21:55:30;17.20;99.90
4604;DHT22;2314;48.272;11.562;2023-07-31T21:57:57;17.10;99.90
4604;DHT22;2314;48.272;11.562;2023-07-31T22:00:24;17.10;99.90
4604;DHT22;2314;48.272;11.562;2023-07-31T22:02:53;17.00;99.90
4604;DHT22;2314;48.272;11.562;2023-07-31T22:06:19;17.00;99.90
4604;DHT22;2314;48.272;11.562;2023-07-31T22:09:46;16.90;99.90
4604;DHT22;2314;48.272;11.562;2023-07-31T22:13:12;16.90;99.90
4604;DHT22;2314;48.272;11.562;2023-07-31T22:16:37;17.00;99.90
4604;DHT22;2314;48.272;11.562;2023-07-31T22:20:05;17.10;99.90
4604;DHT22;2314;48.272;11.562;2023-07-31T22:23:31;17.20;99.90
4604;DHT22;2314;48.272;11.562;2023-07-31T22:26:56;17.20;99.90
4604;DHT22;2314;48.272;11.562;2023-07-31T22:30:25;17.30;99.90
4604;DHT22;2314;48.272;11.562;2023-07-31T22:33:51;17.30;99.90
4604;DHT22;2314;48.272;11.562;2023-07-31T22:37:18;17.30;99.90
4604;DHT22;2314;48.272;11.562;2023-07-31T22:40:44;17.20;99.90
4604;DHT22;2314;48.272;11.562;2023-07-31T22:44:11;17.00;99.90
4604;DHT22;2314;48.272;11.562;2023-07-31T22:47:37;16.90;99.90
4604;DHT22;2314;48.272;11.562;2023-07-31T22:51:04;16.80;99.90
4604;DHT22;2314;48.272;11.562;2023-07-31T22:54:33;16.80;99.90
4604;DHT22;2314;48.272;11.562;2023-07-31T22:57:58;16.80;99.90
4604;DHT22;2314;48.272;11.562;2023-07-31T23:01:24;16.70;99.90
4604;DHT22;2314;48.272;11.562;2023-07-31T23:04:50;16.70;99.90
4604;DHT22;2314;48.272;11.562;2023-07-31T23:08:17;16.70;99.90
4604;DHT22;2314;48.272;11.562;2023-07-31T23:11:45;16.70;99.90
4604;DHT22;2314;48.272;11.562;2023-07-31T23:15:11;16.80;99.90
4604;DHT22;2314;48.272;11.562;2023-07-31T23:18:37;16.80;99.90
4604;DHT22;2314;48.272;11.562;2023-07-31T23:22:03;16.80;99.90
4604;DHT22;2314;48.272;11.562;2023-07-31T23:25:33;16.80;99.90
4604;DHT22;2314;48.272;11.562;2023-07-31T23:29:00;16.80;99.90
4604;DHT22;2314;48.272;11.562;2023-07-31T23:32:25;16.80;99.90
4604;DHT22;2314;48.272;11.562;2023-07-31T23:35:51;16.80;99.90
4604;DHT22;2314;48.272;11.562;2023-07-31T23:39:16;16.80;99.90
4604;DHT22;2314;48.272;11.562;2023-07-31T23:42:42;16.80;99.90
4604;DHT22;2314;48.272;11.562;2023-07-31T23:46:09;16.80;99.90
4604;DHT22;2314;48.272;11.562;2023-07-31T23:49:34;16.80;99.90
4604;DHT22;2314;48.272;11.562;2023-07-31T23:53:00;16.90;99.90
4604;DHT22;2314;48.272;11.562;2023-07-31T23:56:25;16.80;99.90
4604;DHT22;2314;48.272;11.562;2023-07-31T23:59:51;16.90;99.90
